Charlestown, Massachusetts
Current Conditions -  °F | °C
As of 8:54 PM on Wednesday 17 Dec 2014 (Local Time) from KBOS Reporting Station
Overcast Overcast  
Wind Chill: 37°   Ceiling: 5000
Heat Index: 44°   Visibility: 10mi
Dew Point: 36°   Wind: 15mph
Humidity: 73%   Direction: 290°WNW
Pressure: 29.72"   Gusts: 25mph
Location:  42.38°N, 71.06°W
Report Text: KBOS 180154Z 29013G22KT 10SM FEW023 SCT035 BKN050 OVC130 07/02 A2972 RMK AO2 SLP064 T00670022
Loading
Personal Weather Stations






























Interactive Weather Map New forecast layout! Learn more

10-Day Weather Forecast

Advertisements
Track Severe Weather on mobile